Time;durP1;ratioP1;P1;durP2;ratioP2;P2;SDS_P1;SDS_P2;PMS_P1;PMS_P2;Temp;Humidity;BMP_temperature;BMP_pressure;BME280_temperature;BME280_humidity;BME280_pressure;Samples;Min_cycle;Max_cycle;Signal;HPM_P1;HPM_P2
2023/08/26 00:01:50;;;;;;;9.27;5.75;;;20.40;84.00;;;;;;5115057;28;20039;-77
2023/08/26 00:04:16;;;;;;;10.48;5.85;;;20.40;84.20;;;;;;5114704;28;20118;-77
2023/08/26 00:06:41;;;;;;;10.50;6.15;;;20.40;84.20;;;;;;5114711;28;20107;-78
2023/08/26 00:09:07;;;;;;;7.85;5.85;;;20.10;85.50;;;;;;5114844;28;20144;-77
2023/08/26 00:11:32;;;;;;;11.25;6.32;;;19.90;86.20;;;;;;5113511;28;20110;-76
2023/08/26 00:13:58;;;;;;;8.52;6.53;;;19.80;86.80;;;;;;5114652;28;20027;-78
2023/08/26 00:16:24;;;;;;;11.80;6.28;;;19.80;87.10;;;;;;5113393;28;20024;-77
2023/08/26 00:18:49;;;;;;;8.60;6.28;;;19.90;87.30;;;;;;5114632;28;20504;-77
2023/08/26 00:21:20;;;;;;;6.82;6.13;;;20.00;87.20;;;;;;5114603;28;20034;-76
2023/08/26 00:23:46;;;;;;;9.43;6.70;;;20.00;87.80;;;;;;5114790;28;20031;-76
2023/08/26 00:26:12;;;;;;;8.40;6.40;;;20.10;86.90;;;;;;5114511;28;20030;-77
2023/08/26 00:28:37;;;;;;;6.28;5.65;;;20.10;86.70;;;;;;5114500;28;20057;-76
2023/08/26 00:31:03;;;;;;;13.30;6.55;;;20.20;86.30;;;;;;5114442;28;20020;-76
2023/08/26 00:33:28;;;;;;;8.98;6.28;;;20.20;86.20;;;;;;5113100;28;20062;-77
2023/08/26 00:35:54;;;;;;;9.27;6.22;;;20.20;86.30;;;;;;5114355;28;20077;-76
2023/08/26 00:38:20;;;;;;;17.63;6.20;;;20.20;86.60;;;;;;5114319;28;20027;-76
2023/08/26 00:40:45;;;;;;;8.85;6.47;;;20.20;86.70;;;;;;5114237;28;20163;-77
2023/08/26 00:43:11;;;;;;;10.07;6.72;;;20.30;87.10;;;;;;5113938;28;20053;-76
2023/08/26 00:45:40;;;;;;;7.65;6.22;;;20.30;87.00;;;;;;5114055;28;20042;-76
2023/08/26 00:48:08;;;;;;;10.27;6.65;;;20.20;87.00;;;;;;5114194;28;20106;-75
2023/08/26 00:50:34;;;;;;;6.88;6.18;;;20.20;86.90;;;;;;5112421;28;20477;-75
2023/08/26 00:53:01;;;;;;;9.02;6.43;;;20.20;87.00;;;;;;5114080;28;20031;-77
2023/08/26 00:55:26;;;;;;;6.78;5.85;;;20.20;87.00;;;;;;5113647;28;20034;-76
2023/08/26 00:57:53;;;;;;;11.30;7.10;;;20.10;86.90;;;;;;5113857;28;20023;-77
2023/08/26 01:00:19;;;;;;;10.23;6.13;;;20.10;87.00;;;;;;5113475;28;20016;-76
2023/08/26 01:02:45;;;;;;;7.15;5.57;;;20.00;86.70;;;;;;5113780;28;20158;-77
2023/08/26 01:05:10;;;;;;;7.97;5.90;;;19.90;88.00;;;;;;5112557;28;20495;-76
2023/08/26 01:07:36;;;;;;;9.57;6.25;;;19.90;87.50;;;;;;5113735;28;20030;-77
2023/08/26 01:10:02;;;;;;;7.65;5.95;;;19.90;87.80;;;;;;5113707;28;20034;-77
2023/08/26 01:12:39;;;;;;;9.70;6.30;;;20.00;88.00;;;;;;5112276;28;20027;-76
2023/08/26 01:15:08;;;;;;;9.77;6.50;;;20.00;87.90;;;;;;5113736;28;20034;-76
2023/08/26 01:17:34;;;;;;;12.50;6.75;;;20.00;87.80;;;;;;5113534;28;20354;-76
2023/08/26 01:20:01;;;;;;;11.25;6.82;;;20.00;87.80;;;;;;5113582;28;20103;-75
2023/08/26 01:22:29;;;;;;;7.65;5.88;;;20.10;88.20;;;;;;5113457;28;20088;-76
2023/08/26 01:24:55;;;;;;;7.43;5.88;;;20.10;87.70;;;;;;5113550;28;20043;-76
2023/08/26 01:27:20;;;;;;;9.05;5.60;;;20.10;87.40;;;;;;5113465;28;20477;-76
2023/08/26 01:29:46;;;;;;;7.47;6.53;;;20.10;87.20;;;;;;5112059;28;20084;-76
2023/08/26 01:32:18;;;;;;;9.73;6.82;;;20.10;86.80;;;;;;5113472;28;20122;-76
2023/08/26 01:34:49;;;;;;;9.13;6.60;;;20.10;87.10;;;;;;5113340;28;20380;-77
2023/08/26 01:37:18;;;;;;;16.60;8.00;;;20.10;87.60;;;;;;5113412;28;20111;-76
2023/08/26 01:39:45;;;;;;;10.75;7.25;;;19.90;88.70;;;;;;5113425;28;20023;-76
2023/08/26 01:42:12;;;;;;;10.75;7.13;;;19.80;89.50;;;;;;5113123;28;20035;-76
2023/08/26 01:44:40;;;;;;;10.15;6.63;;;19.80;89.40;;;;;;5113216;28;20036;-76
2023/08/26 01:47:06;;;;;;;9.38;7.53;;;19.80;89.60;;;;;;5113279;28;20361;-75
2023/08/26 01:49:32;;;;;;;10.52;7.80;;;19.90;89.70;;;;;;5113258;28;20039;-75
2023/08/26 01:51:58;;;;;;;10.43;7.60;;;19.80;89.40;;;;;;5113256;28;20015;-76
2023/08/26 01:54:23;;;;;;;11.88;6.78;;;19.70;89.90;;;;;;5113194;28;20027;-76
2023/08/26 01:56:49;;;;;;;9.57;6.18;;;19.70;89.20;;;;;;5113253;28;20050;-77
2023/08/26 01:59:14;;;;;;;8.10;4.97;;;19.60;88.80;;;;;;5111904;28;20047;-78
2023/08/26 02:01:40;;;;;;;5.80;5.22;;;19.50;88.90;;;;;;5113239;28;20031;-79
2023/08/26 02:04:05;;;;;;;7.03;5.25;;;19.40;89.10;;;;;;5113025;28;20038;-79
2023/08/26 02:06:31;;;;;;;7.80;5.22;;;19.50;89.20;;;;;;5113120;28;20532;-79
2023/08/26 02:08:57;;;;;;;6.32;4.65;;;19.50;89.50;;;;;;5113096;28;20016;-78
2023/08/26 02:11:22;;;;;;;4.07;3.67;;;19.60;89.70;;;;;;5116618;28;20012;-79
2023/08/26 02:13:48;;;;;;;5.10;4.47;;;19.70;89.50;;;;;;5117116;28;20058;-79
2023/08/26 02:16:13;;;;;;;8.32;5.20;;;19.70;89.70;;;;;;5115896;28;20518;-78
2023/08/26 02:18:39;;;;;;;6.30;5.07;;;19.80;89.60;;;;;;5117012;28;20040;-78
2023/08/26 02:21:04;;;;;;;7.50;4.60;;;19.80;89.40;;;;;;5117257;28;20027;-78
2023/08/26 02:23:30;;;;;;;8.02;4.85;;;19.90;89.30;;;;;;5116901;28;20088;-78
2023/08/26 02:25:55;;;;;;;5.93;4.70;;;19.90;89.20;;;;;;5116916;28;20027;-78
2023/08/26 02:28:21;;;;;;;5.90;4.68;;;20.00;89.00;;;;;;5116870;28;20031;-78
2023/08/26 02:30:46;;;;;;;8.00;4.93;;;20.00;88.60;;;;;;5116820;28;20020;-78
2023/08/26 02:33:12;;;;;;;7.38;5.60;;;20.00;88.50;;;;;;5116846;28;20035;-79
2023/08/26 02:35:38;;;;;;;6.45;4.82;;;20.00;88.40;;;;;;5116679;28;20035;-79
2023/08/26 02:38:03;;;;;;;5.53;4.80;;;20.00;88.10;;;;;;5116672;28;20023;-77
2023/08/26 02:40:29;;;;;;;7.15;5.00;;;20.00;88.00;;;;;;5116634;28;20023;-76
2023/08/26 02:42:54;;;;;;;5.93;5.30;;;19.90;88.30;;;;;;5116429;28;20410;-76
2023/08/26 02:45:20;;;;;;;5.75;5.13;;;19.90;88.30;;;;;;5116453;28;20035;-77
2023/08/26 02:47:46;;;;;;;5.32;4.82;;;19.90;88.40;;;;;;5116297;28;20032;-77
2023/08/26 02:50:12;;;;;;;9.07;5.05;;;19.90;88.50;;;;;;5115116;28;20122;-77
2023/08/26 02:52:37;;;;;;;7.75;5.20;;;19.90;88.60;;;;;;5116334;28;20063;-77
2023/08/26 02:55:03;;;;;;;7.30;5.53;;;19.90;88.70;;;;;;5116331;28;20028;-77
2023/08/26 02:57:28;;;;;;;10.10;5.28;;;19.80;88.20;;;;;;5116246;28;20020;-77
2023/08/26 02:59:54;;;;;;;6.53;5.30;;;19.90;88.40;;;;;;5116260;28;20035;-76
2023/08/26 03:02:24;;;;;;;7.50;4.95;;;19.80;88.30;;;;;;5116277;28;20026;-77
2023/08/26 03:04:50;;;;;;;8.57;5.70;;;19.80;88.40;;;;;;5116035;28;20031;-78
2023/08/26 03:07:16;;;;;;;7.35;5.13;;;19.70;88.50;;;;;;5114584;28;20070;-77
2023/08/26 03:09:41;;;;;;;8.23;5.22;;;19.70;88.50;;;;;;5116010;28;20024;-76
2023/08/26 03:12:07;;;;;;;7.97;5.68;;;19.70;88.60;;;;;;5116120;28;20020;-76
2023/08/26 03:14:32;;;;;;;8.52;5.40;;;19.70;88.70;;;;;;5115974;28;20385;-77
2023/08/26 03:16:58;;;;;;;8.32;6.05;;;19.70;88.70;;;;;;5115917;28;20024;-76
2023/08/26 03:19:24;;;;;;;9.98;4.82;;;19.70;88.90;;;;;;5115823;28;20063;-77
2023/08/26 03:21:49;;;;;;;9.63;5.00;;;19.70;88.80;;;;;;5113921;28;20016;-77
2023/08/26 03:24:16;;;;;;;8.60;5.38;;;19.60;88.20;;;;;;5114455;28;20043;-76
2023/08/26 03:26:43;;;;;;;11.45;5.00;;;19.60;88.40;;;;;;5115707;28;20095;-76
2023/08/26 03:29:08;;;;;;;5.85;4.70;;;19.50;88.30;;;;;;5115645;28;20028;-76
2023/08/26 03:31:34;;;;;;;5.70;4.70;;;19.40;88.30;;;;;;5114291;28;20028;-76
2023/08/26 03:33:59;;;;;;;7.57;4.30;;;19.40;88.90;;;;;;5115464;28;20107;-76
2023/08/26 03:36:25;;;;;;;9.63;5.50;;;19.40;88.90;;;;;;5115593;28;20085;-76
2023/08/26 03:38:50;;;;;;;8.95;5.25;;;19.40;88.70;;;;;;5115468;28;20019;-76
2023/08/26 03:41:16;;;;;;;6.45;4.38;;;19.40;88.50;;;;;;5114264;28;20423;-76
2023/08/26 03:43:41;;;;;;;7.72;4.75;;;19.40;88.10;;;;;;5115062;28;20135;-76
2023/08/26 03:46:07;;;;;;;7.95;4.45;;;19.40;88.30;;;;;;5115286;28;20024;-76
2023/08/26 03:48:33;;;;;;;6.88;4.85;;;19.40;88.30;;;;;;5115191;28;20081;-76
2023/08/26 03:50:58;;;;;;;7.40;4.50;;;19.40;88.20;;;;;;5114760;28;20055;-76
2023/08/26 03:53:24;;;;;;;9.07;4.80;;;19.40;88.90;;;;;;5114767;28;20031;-76
2023/08/26 03:55:50;;;;;;;7.68;4.82;;;19.40;88.00;;;;;;5114702;28;20022;-76
2023/08/26 03:58:16;;;;;;;7.90;4.68;;;19.40;88.00;;;;;;5115060;28;20023;-76
2023/08/26 04:00:42;;;;;;;6.45;4.45;;;19.40;88.00;;;;;;5115034;28;20063;-76
2023/08/26 04:03:08;;;;;;;6.82;4.47;;;19.40;88.00;;;;;;5115000;28;20020;-76
2023/08/26 04:05:34;;;;;;;10.30;5.03;;;19.30;88.10;;;;;;5115048;28;20036;-76
2023/08/26 04:08:00;;;;;;;7.75;4.88;;;19.30;88.30;;;;;;5115123;28;20027;-77
2023/08/26 04:10:26;;;;;;;6.93;5.00;;;19.40;88.50;;;;;;5114857;28;20038;-76
2023/08/26 04:12:51;;;;;;;8.15;4.97;;;19.40;88.50;;;;;;5114892;28;20103;-76
2023/08/26 04:15:17;;;;;;;7.15;4.88;;;19.30;88.00;;;;;;5114855;28;20032;-77
2023/08/26 04:17:43;;;;;;;10.32;5.15;;;19.30;88.10;;;;;;5114590;28;20508;-76
2023/08/26 04:20:11;;;;;;;9.43;5.28;;;19.30;88.10;;;;;;5114776;28;20023;-76
2023/08/26 04:22:37;;;;;;;9.13;5.07;;;19.30;87.80;;;;;;5114632;28;20023;-76
2023/08/26 04:25:03;;;;;;;8.10;5.13;;;19.20;88.00;;;;;;5114543;28;20024;-76
2023/08/26 04:27:28;;;;;;;6.72;4.78;;;19.20;88.10;;;;;;5114335;28;20023;-76
2023/08/26 04:29:54;;;;;;;9.65;5.30;;;19.20;88.00;;;;;;5114573;28;20028;-76
2023/08/26 04:32:19;;;;;;;6.35;4.90;;;19.20;87.80;;;;;;5114712;28;20030;-76
2023/08/26 04:34:46;;;;;;;6.72;4.78;;;19.20;87.80;;;;;;5112400;28;20019;-76
2023/08/26 04:37:12;;;;;;;9.10;5.60;;;19.20;87.60;;;;;;5114538;28;20023;-77
2023/08/26 04:39:38;;;;;;;7.40;4.80;;;19.20;87.90;;;;;;5114526;28;20012;-77
2023/08/26 04:42:04;;;;;;;8.48;4.85;;;19.20;88.10;;;;;;5114379;28;20020;-77
2023/08/26 04:44:30;;;;;;;8.35;4.97;;;19.20;88.00;;;;;;5114219;28;20055;-77
2023/08/26 04:46:55;;;;;;;7.40;4.47;;;19.20;88.00;;;;;;5114197;28;20062;-77
2023/08/26 04:49:21;;;;;;;4.88;4.13;;;19.20;88.10;;;;;;5114284;28;20028;-76
2023/08/26 04:51:54;;;;;;;10.77;5.75;;;19.30;88.10;;;;;;5114214;28;20023;-76
2023/08/26 04:54:21;;;;;;;9.88;5.63;;;19.30;87.80;;;;;;5114152;28;20030;-76
2023/08/26 04:56:47;;;;;;;7.57;5.32;;;19.20;88.10;;;;;;5114042;28;20031;-76
2023/08/26 04:59:12;;;;;;;11.30;5.07;;;19.20;88.20;;;;;;5113935;28;20023;-77
2023/08/26 05:01:38;;;;;;;7.72;5.18;;;19.20;88.10;;;;;;5118812;28;20500;-76
2023/08/26 05:04:04;;;;;;;7.20;4.57;;;19.20;88.00;;;;;;5121117;28;20389;-75
2023/08/26 05:06:30;;;;;;;8.43;4.80;;;19.20;88.00;;;;;;5123517;28;20020;-76
2023/08/26 05:08:55;;;;;;;7.75;4.93;;;19.20;88.00;;;;;;5114107;28;20384;-76
2023/08/26 05:11:21;;;;;;;13.60;5.63;;;19.20;88.10;;;;;;5114113;28;20028;-76
2023/08/26 05:13:46;;;;;;;16.45;6.05;;;19.30;87.70;;;;;;5113843;28;20031;-76
2023/08/26 05:16:12;;;;;;;10.25;6.18;;;19.20;87.00;;;;;;5113989;28;20031;-77
2023/08/26 05:18:37;;;;;;;7.97;4.82;;;19.20;87.20;;;;;;5113786;28;20111;-75
2023/08/26 05:21:03;;;;;;;8.15;5.28;;;19.20;87.50;;;;;;5114021;28;20019;-77
2023/08/26 05:23:28;;;;;;;14.30;5.65;;;19.20;87.60;;;;;;5120952;28;20020;-79
2023/08/26 05:25:54;;;;;;;9.90;5.95;;;19.40;88.70;;;;;;5119733;28;20481;-79
2023/08/26 05:28:20;;;;;;;11.15;5.63;;;19.50;87.80;;;;;;5118770;28;20023;-77
2023/08/26 05:30:45;;;;;;;10.02;4.93;;;19.60;86.60;;;;;;5115063;28;20024;-78
2023/08/26 05:33:11;;;;;;;8.27;4.80;;;19.70;86.10;;;;;;5114408;28;20020;-77
2023/08/26 05:35:36;;;;;;;8.75;5.15;;;19.90;85.10;;;;;;5115379;28;20020;-78
2023/08/26 05:38:02;;;;;;;8.00;4.90;;;20.00;84.60;;;;;;5114681;28;20023;-77
2023/08/26 05:40:29;;;;;;;7.35;4.65;;;20.10;84.10;;;;;;5113757;28;20051;-78
2023/08/26 05:42:58;;;;;;;8.70;4.57;;;20.20;83.90;;;;;;5113253;28;20134;-78
2023/08/26 05:45:25;;;;;;;11.95;4.57;;;20.20;83.40;;;;;;5113465;28;20070;-78
2023/08/26 05:47:51;;;;;;;8.52;4.55;;;20.20;83.30;;;;;;5113905;28;20493;-77
2023/08/26 05:50:17;;;;;;;7.03;4.75;;;20.30;83.50;;;;;;5113624;28;20042;-78
2023/08/26 05:52:43;;;;;;;10.98;5.15;;;20.30;83.20;;;;;;5114829;28;20076;-78
2023/08/26 05:55:09;;;;;;;6.93;4.93;;;20.30;82.80;;;;;;5115772;28;20023;-78
2023/08/26 05:57:35;;;;;;;8.30;5.35;;;20.30;83.00;;;;;;5116097;28;20350;-80
2023/08/26 06:00:02;;;;;;;8.18;4.82;;;20.50;82.60;;;;;;5112170;28;20227;-79
2023/08/26 06:02:28;;;;;;;11.00;5.25;;;20.50;82.40;;;;;;5114103;28;20019;-78
2023/08/26 06:04:54;;;;;;;7.35;3.95;;;20.60;82.90;;;;;;5113297;28;20059;-78
2023/08/26 06:07:20;;;;;;;8.20;4.45;;;20.70;81.90;;;;;;5113614;28;20517;-78
2023/08/26 06:09:45;;;;;;;10.82;4.57;;;20.90;81.20;;;;;;5113679;28;20023;-78
2023/08/26 06:12:11;;;;;;;8.00;3.97;;;21.10;80.50;;;;;;5113187;28;20389;-77
2023/08/26 06:14:37;;;;;;;12.27;4.60;;;21.30;79.80;;;;;;5111975;28;20028;-78
2023/08/26 06:17:03;;;;;;;7.47;4.43;;;21.50;78.60;;;;;;5113169;28;20069;-80
2023/08/26 06:19:28;;;;;;;7.55;4.40;;;21.70;77.70;;;;;;5113517;28;20023;-83
2023/08/26 06:21:54;;;;;;;7.68;4.18;;;21.70;77.30;;;;;;5113309;28;20020;-81
2023/08/26 06:24:19;;;;;;;6.00;4.05;;;21.70;77.50;;;;;;5111802;28;20028;-79
2023/08/26 06:26:45;;;;;;;6.32;4.20;;;21.60;77.70;;;;;;5113693;28;20027;-80
2023/08/26 06:29:13;;;;;;;11.10;4.70;;;21.60;78.00;;;;;;5118713;28;20023;-80
2023/08/26 06:31:38;;;;;;;7.63;4.57;;;21.60;78.30;;;;;;5111873;28;20469;-79
2023/08/26 06:34:04;;;;;;;6.13;4.28;;;21.60;78.00;;;;;;5112849;28;20039;-81
2023/08/26 06:36:30;;;;;;;7.65;4.00;;;21.70;76.90;;;;;;5112596;28;20031;-79
2023/08/26 06:38:55;;;;;;;12.02;5.05;;;21.70;76.40;;;;;;5112829;28;20084;-79
2023/08/26 06:41:21;;;;;;;6.10;4.13;;;21.70;76.30;;;;;;5111370;28;20098;-79
2023/08/26 06:43:46;;;;;;;9.25;4.63;;;21.70;76.20;;;;;;5112983;28;20090;-80
2023/08/26 06:46:12;;;;;;;6.97;3.85;;;21.80;75.70;;;;;;5113019;28;20081;-80
2023/08/26 06:48:38;;;;;;;11.10;4.40;;;21.70;75.50;;;;;;5112863;28;20483;-80
2023/08/26 06:51:04;;;;;;;9.30;5.07;;;21.80;75.30;;;;;;5112799;28;20295;-78
2023/08/26 06:53:29;;;;;;;8.32;4.68;;;21.70;74.10;;;;;;5112682;28;20050;-79
2023/08/26 06:55:55;;;;;;;10.52;4.88;;;21.60;74.90;;;;;;5112603;28;20032;-79
2023/08/26 06:58:23;;;;;;;25.48;7.32;;;21.50;74.70;;;;;;5114504;28;20024;-78
2023/08/26 07:00:49;;;;;;;7.32;3.95;;;21.40;75.70;;;;;;5114929;28;20016;-78
2023/08/26 07:03:15;;;;;;;14.15;4.32;;;21.30;75.50;;;;;;5116229;28;20034;-76
2023/08/26 07:05:45;;;;;;;5.20;3.67;;;21.30;76.00;;;;;;5116018;28;20024;-74
2023/08/26 07:08:10;;;;;;;5.13;3.63;;;21.40;76.20;;;;;;5117105;28;20016;-79
2023/08/26 07:10:36;;;;;;;8.45;3.97;;;21.40;75.50;;;;;;5116023;28;20388;-78
2023/08/26 07:13:01;;;;;;;8.25;4.15;;;21.40;75.20;;;;;;5114512;28;20027;-76
2023/08/26 07:15:27;;;;;;;5.88;3.70;;;21.30;75.10;;;;;;5115746;28;20028;-76
2023/08/26 07:17:54;;;;;;;8.65;5.28;;;21.30;74.70;;;;;;5115992;28;20023;-80
2023/08/26 07:20:19;;;;;;;14.75;11.52;;;21.30;74.70;;;;;;5115773;28;20024;-79
2023/08/26 07:22:46;;;;;;;10.02;6.07;;;21.20;74.40;;;;;;5115315;28;20068;-79
2023/08/26 07:25:12;;;;;;;5.63;3.88;;;21.20;74.40;;;;;;5115522;28;20024;-79
2023/08/26 07:27:38;;;;;;;6.97;4.13;;;21.20;74.80;;;;;;5115753;28;20027;-79
2023/08/26 07:30:04;;;;;;;10.55;4.20;;;21.30;75.10;;;;;;5114520;28;20477;-79
2023/08/26 07:32:30;;;;;;;7.63;4.25;;;21.40;74.10;;;;;;5115653;28;20033;-78
2023/08/26 07:34:56;;;;;;;6.65;4.20;;;21.50;74.30;;;;;;5115407;28;20024;-80
2023/08/26 07:37:21;;;;;;;10.40;4.30;;;21.60;74.60;;;;;;5115142;28;20019;-80
2023/08/26 07:39:51;;;;;;;6.18;4.20;;;21.50;74.00;;;;;;5115317;28;20032;-80
2023/08/26 07:42:17;;;;;;;9.20;4.47;;;21.40;74.70;;;;;;5115327;27;20023;-79
2023/08/26 07:44:43;;;;;;;8.13;4.30;;;21.30;74.40;;;;;;5115404;28;20111;-79
2023/08/26 07:47:09;;;;;;;4.93;3.58;;;21.20;74.90;;;;;;5115172;28;20108;-79
2023/08/26 07:49:34;;;;;;;5.40;3.65;;;21.30;75.10;;;;;;5114976;28;20110;-79
2023/08/26 07:52:00;;;;;;;7.53;3.88;;;21.50;74.40;;;;;;5115182;28;20055;-79
2023/08/26 07:54:26;;;;;;;5.78;3.50;;;21.60;73.60;;;;;;5115380;28;20120;-80
2023/08/26 07:56:51;;;;;;;6.03;3.45;;;21.60;73.20;;;;;;5115135;28;20423;-80
2023/08/26 07:59:17;;;;;;;6.63;3.67;;;21.70;73.30;;;;;;5115112;28;20020;-79
2023/08/26 08:01:43;;;;;;;6.90;3.70;;;21.90;72.50;;;;;;5115158;28;20028;-78
2023/08/26 08:04:08;;;;;;;5.70;3.45;;;22.20;71.70;;;;;;5114988;28;20036;-80
2023/08/26 08:06:34;;;;;;;6.15;3.08;;;22.50;70.60;;;;;;5114739;28;20026;-79
2023/08/26 08:08:59;;;;;;;5.97;3.00;;;22.80;69.00;;;;;;5114717;28;20028;-80
2023/08/26 08:11:25;;;;;;;5.53;3.45;;;23.00;68.40;;;;;;5114733;28;20051;-80
2023/08/26 08:13:51;;;;;;;5.88;3.15;;;23.20;67.10;;;;;;5115028;28;20042;-79
2023/08/26 08:16:16;;;;;;;6.97;3.30;;;23.40;66.40;;;;;;5113231;28;20027;-80
2023/08/26 08:18:42;;;;;;;6.15;3.50;;;23.40;66.50;;;;;;5115112;28;20505;-79
2023/08/26 08:21:08;;;;;;;8.45;3.30;;;23.30;66.50;;;;;;5113249;28;20023;-80
2023/08/26 08:23:35;;;;;;;10.20;4.35;;;23.20;65.20;;;;;;5114316;28;20077;-79
2023/08/26 08:26:00;;;;;;;9.70;3.85;;;23.20;64.80;;;;;;5114707;28;20020;-80
2023/08/26 08:28:26;;;;;;;9.75;3.70;;;23.20;64.20;;;;;;5114772;28;20030;-81
2023/08/26 08:30:51;;;;;;;7.28;3.47;;;22.90;64.80;;;;;;5114561;28;20026;-80
2023/08/26 08:33:17;;;;;;;6.20;2.60;;;22.80;65.00;;;;;;5114404;28;20030;-81
2023/08/26 08:35:43;;;;;;;6.15;3.33;;;22.90;65.50;;;;;;5114983;28;20023;-80
2023/08/26 08:38:08;;;;;;;7.50;3.97;;;23.00;65.50;;;;;;5113256;28;20103;-81
2023/08/26 08:40:34;;;;;;;6.38;3.72;;;23.00;65.60;;;;;;5114208;28;20385;-81
2023/08/26 08:43:02;;;;;;;5.65;3.08;;;22.90;64.70;;;;;;5113302;28;20051;-79
2023/08/26 08:45:28;;;;;;;6.57;3.60;;;22.90;64.30;;;;;;5112573;28;20031;-78
2023/08/26 08:47:54;;;;;;;6.05;3.30;;;22.90;63.90;;;;;;5112816;28;20047;-79
2023/08/26 08:50:21;;;;;;;8.38;3.78;;;23.00;64.10;;;;;;5114026;28;20035;-79
2023/08/26 08:52:49;;;;;;;9.20;3.70;;;23.20;65.10;;;;;;5114463;28;20483;-79
2023/08/26 08:55:14;;;;;;;7.45;3.53;;;23.40;63.00;;;;;;5114403;28;20020;-79
2023/08/26 08:57:42;;;;;;;5.28;2.85;;;23.20;63.90;;;;;;5113796;28;20035;-79
2023/08/26 09:00:08;;;;;;;7.07;3.63;;;23.30;64.30;;;;;;5114166;28;20020;-79
2023/08/26 09:02:40;;;;;;;7.50;3.00;;;23.40;64.30;;;;;;5113494;28;20032;-80
2023/08/26 09:05:07;;;;;;;6.75;3.55;;;23.40;64.10;;;;;;5113802;28;20035;-78
2023/08/26 09:07:34;;;;;;;8.30;3.70;;;23.60;63.90;;;;;;5114854;28;20015;-79
2023/08/26 09:10:00;;;;;;;6.70;3.03;;;23.90;63.20;;;;;;5115496;28;20429;-78
2023/08/26 09:12:26;;;;;;;7.55;3.38;;;24.20;62.70;;;;;;5119862;28;20070;-79
2023/08/26 09:14:52;;;;;;;6.95;3.30;;;24.30;61.50;;;;;;5113654;28;20092;-83
2023/08/26 09:17:19;;;;;;;9.15;3.88;;;24.30;61.10;;;;;;5113710;28;20027;-78
2023/08/26 09:19:58;;;;;;;7.13;3.95;;;24.20;60.20;;;;;;5112088;28;20020;-78
2023/08/26 09:22:27;;;;;;;8.25;3.28;;;24.00;60.50;;;;;;5112156;28;20028;-80
2023/08/26 09:27:45;;;;;;;16.27;11.75;;;23.70;62.00;;;;;;5057213;22;20568;-80
2023/08/26 09:30:17;;;;;;;13.30;7.00;;;23.70;62.60;;;;;;5051779;28;20021;-79
2023/08/26 09:32:45;;;;;;;8.90;6.05;;;23.70;62.70;;;;;;5051844;28;20037;-81
2023/08/26 09:35:15;;;;;;;8.50;3.92;;;23.80;62.30;;;;;;5052088;28;20509;-80
2023/08/26 09:37:42;;;;;;;6.45;4.13;;;23.80;61.10;;;;;;5034953;28;20171;-79
2023/08/26 09:40:15;;;;;;;7.10;3.88;;;23.70;61.60;;;;;;5051725;28;20376;-79
2023/08/26 09:42:41;;;;;;;9.15;3.58;;;23.80;61.70;;;;;;5058246;28;20029;-79
2023/08/26 09:45:13;;;;;;;7.72;3.83;;;23.90;61.60;;;;;;5051794;28;20048;-79
2023/08/26 09:47:39;;;;;;;8.45;4.20;;;24.00;61.80;;;;;;5051705;28;20119;-78
2023/08/26 09:50:08;;;;;;;6.30;3.55;;;24.10;60.40;;;;;;5051837;28;20032;-80
2023/08/26 09:52:47;;;;;;;8.52;3.35;;;24.20;60.70;;;;;;5051832;28;20063;-80
2023/08/26 09:55:13;;;;;;;6.60;3.80;;;24.20;61.70;;;;;;5051648;28;20036;-80
2023/08/26 09:57:39;;;;;;;8.43;3.80;;;24.10;60.30;;;;;;5053418;28;20033;-79
2023/08/26 10:00:08;;;;;;;6.38;3.75;;;23.90;60.70;;;;;;5051466;28;20074;-80
2023/08/26 10:02:37;;;;;;;8.00;3.95;;;24.00;61.30;;;;;;5051174;28;20035;-79
2023/08/26 10:05:09;;;;;;;7.75;4.15;;;23.80;61.50;;;;;;5051063;28;20490;-79
2023/08/26 10:07:36;;;;;;;9.73;4.30;;;23.80;61.30;;;;;;5051074;28;20391;-79
2023/08/26 10:10:16;;;;;;;12.80;4.45;;;23.50;61.20;;;;;;5051486;28;20058;-80
2023/08/26 10:12:44;;;;;;;11.52;4.40;;;23.30;63.30;;;;;;5051508;28;20017;-78
2023/08/26 10:15:13;;;;;;;11.60;4.00;;;23.20;62.90;;;;;;5050577;28;20056;-78
2023/08/26 10:17:43;;;;;;;5.00;3.40;;;23.40;63.40;;;;;;5051317;28;20057;-78
2023/08/26 10:20:09;;;;;;;7.28;3.65;;;23.50;62.50;;;;;;5051225;28;20120;-78
2023/08/26 10:22:36;;;;;;;8.63;3.60;;;23.80;61.80;;;;;;5050824;28;20112;-79
2023/08/26 10:25:06;;;;;;;6.07;3.40;;;24.00;60.90;;;;;;5051403;28;20479;-80
2023/08/26 10:27:34;;;;;;;9.27;3.83;;;24.10;60.00;;;;;;5051342;28;20090;-80
2023/08/26 10:30:02;;;;;;;5.80;3.05;;;23.90;60.10;;;;;;5052784;28;20024;-79
2023/08/26 10:32:28;;;;;;;10.75;4.38;;;23.80;60.90;;;;;;5041727;28;20039;-80
2023/08/26 10:34:58;;;;;;;7.88;4.35;;;23.70;61.50;;;;;;5054880;28;20487;-78
2023/08/26 10:37:32;;;;;;;8.82;3.97;;;23.40;62.40;;;;;;5038093;28;20166;-75
2023/08/26 10:40:09;;;;;;;9.02;4.38;;;23.20;63.40;;;;;;5054581;28;20166;-79
2023/08/26 10:42:37;;;;;;;13.00;4.38;;;23.00;64.50;;;;;;5055957;28;20032;-79
2023/08/26 10:45:10;;;;;;;18.40;4.53;;;22.90;66.10;;;;;;5054519;28;20039;-78
2023/08/26 10:47:45;;;;;;;9.75;4.38;;;22.70;66.80;;;;;;5054749;28;20083;-78
2023/08/26 10:50:22;;;;;;;12.93;4.07;;;22.60;67.30;;;;;;5054884;28;20052;-79
2023/08/26 10:53:19;;;;;;;10.82;4.15;;;22.50;68.00;;;;;;5054810;28;20021;-79
2023/08/26 10:55:47;;;;;;;8.35;3.80;;;22.50;68.80;;;;;;5054692;28;20823;-79
2023/08/26 10:58:18;;;;;;;7.60;4.63;;;22.40;69.40;;;;;;5038184;28;20432;-79
2023/08/26 11:00:52;;;;;;;9.23;4.75;;;22.30;70.70;;;;;;5054612;28;20025;-79
2023/08/26 11:03:19;;;;;;;10.52;4.75;;;22.40;70.30;;;;;;5054254;28;20040;-79
2023/08/26 11:05:46;;;;;;;11.25;4.72;;;22.50;70.50;;;;;;5036825;28;20538;-79
2023/08/26 11:08:13;;;;;;;9.07;4.30;;;22.60;70.50;;;;;;5054047;28;20376;-79
2023/08/26 11:10:39;;;;;;;8.75;4.10;;;22.60;70.90;;;;;;5054569;28;20076;-79
2023/08/26 11:13:10;;;;;;;6.10;3.67;;;22.60;69.90;;;;;;5054291;28;20115;-79
2023/08/26 11:15:40;;;;;;;8.98;4.50;;;22.60;69.40;;;;;;5053589;28;20032;-79
2023/08/26 11:18:07;;;;;;;11.48;4.80;;;22.10;72.00;;;;;;5054477;28;20021;-80
2023/08/26 11:20:33;;;;;;;11.00;4.95;;;21.70;73.40;;;;;;5053763;28;20032;-79
2023/08/26 11:23:01;;;;;;;11.00;4.13;;;21.40;73.40;;;;;;5054055;28;20032;-79
2023/08/26 11:25:27;;;;;;;9.05;4.40;;;21.30;73.00;;;;;;5053920;28;20416;-79
2023/08/26 11:27:54;;;;;;;13.05;4.43;;;21.20;72.50;;;;;;5054337;28;20025;-79
2023/08/26 11:30:19;;;;;;;14.13;4.43;;;21.30;73.10;;;;;;5054279;28;20466;-79
2023/08/26 11:32:48;;;;;;;7.22;4.15;;;21.20;73.50;;;;;;5053981;28;20028;-79
2023/08/26 11:35:14;;;;;;;8.32;4.82;;;21.10;75.20;;;;;;5053614;28;20025;-79
2023/08/26 11:37:47;;;;;;;7.43;3.80;;;21.10;75.40;;;;;;5054220;28;20463;-79
2023/08/26 11:40:15;;;;;;;6.35;3.72;;;21.10;75.30;;;;;;5036878;28;20079;-79
2023/08/26 11:42:40;;;;;;;8.85;4.43;;;21.20;75.40;;;;;;5052381;28;20017;-79
2023/08/26 11:45:12;;;;;;;9.88;4.40;;;21.30;75.40;;;;;;5036571;28;20398;-79
2023/08/26 11:47:39;;;;;;;8.45;3.85;;;21.40;74.70;;;;;;5053194;28;20019;-78
2023/08/26 11:50:08;;;;;;;7.32;4.40;;;21.20;75.00;;;;;;5058756;28;20048;-79
2023/08/26 11:52:36;;;;;;;8.63;4.35;;;21.30;75.10;;;;;;5050749;28;20025;-79
2023/08/26 11:55:05;;;;;;;9.98;4.68;;;21.30;75.40;;;;;;5053032;28;20082;-79
2023/08/26 11:57:40;;;;;;;8.23;4.43;;;21.30;75.30;;;;;;5052991;28;20095;-78
2023/08/26 12:00:17;;;;;;;11.70;4.15;;;21.20;75.30;;;;;;5052739;28;20021;-79
2023/08/26 12:02:48;;;;;;;10.77;4.05;;;21.20;76.00;;;;;;5051795;28;20029;-79
2023/08/26 12:05:15;;;;;;;12.20;5.15;;;21.10;75.40;;;;;;5050484;28;20037;-79
2023/08/26 12:07:51;;;;;;;13.00;5.03;;;20.80;77.50;;;;;;5053093;28;20112;-79
2023/08/26 12:10:18;;;;;;;9.07;4.43;;;20.50;78.30;;;;;;5053462;28;20025;-79
2023/08/26 12:12:45;;;;;;;10.52;4.60;;;20.50;78.70;;;;;;5036887;28;20031;-79
2023/08/26 12:15:18;;;;;;;11.57;4.13;;;20.50;78.90;;;;;;5053137;28;20016;-79
2023/08/26 12:17:51;;;;;;;8.52;4.63;;;20.50;78.50;;;;;;5053380;28;20031;-79
2023/08/26 12:20:26;;;;;;;6.57;4.57;;;20.50;79.00;;;;;;5053374;28;20104;-78
2023/08/26 12:22:55;;;;;;;12.82;7.53;;;20.60;79.40;;;;;;5052736;28;20435;-77
2023/08/26 12:25:32;;;;;;;11.00;6.78;;;20.80;79.70;;;;;;5036507;28;20032;-87
2023/08/26 12:28:05;;;;;;;7.97;5.15;;;20.80;79.50;;;;;;5052928;28;20017;-81
2023/08/26 12:30:30;;;;;;;10.50;6.10;;;20.80;78.70;;;;;;5053009;28;20021;-82
2023/08/26 12:32:56;;;;;;;9.35;5.82;;;20.80;78.70;;;;;;5053028;28;20017;-81
2023/08/26 12:35:23;;;;;;;8.77;4.90;;;20.80;78.80;;;;;;5053540;28;20064;-82
2023/08/26 12:37:49;;;;;;;11.05;5.03;;;20.90;79.60;;;;;;5058696;28;20071;-82
2023/08/26 12:40:14;;;;;;;11.80;5.55;;;20.90;79.30;;;;;;5052887;28;20025;-82
2023/08/26 12:42:40;;;;;;;11.98;4.47;;;20.90;79.60;;;;;;5035947;28;20040;-80
2023/08/26 12:45:07;;;;;;;9.80;3.85;;;20.90;78.50;;;;;;5053506;28;20038;-80
2023/08/26 12:47:33;;;;;;;9.55;3.70;;;20.70;76.90;;;;;;5052627;28;20083;-80